sensor_id;sensor_type;location;lat;lon;timestamp;P1;durP1;ratioP1;P2;durP2;ratioP2
8066;SDS011;4076;48.076;9.118;2022-11-23T00:00:54;4.10;;;3.10;;
8066;SDS011;4076;48.076;9.118;2022-11-23T00:03:20;5.47;;;3.50;;
8066;SDS011;4076;48.076;9.118;2022-11-23T00:05:45;8.27;;;4.70;;
8066;SDS011;4076;48.076;9.118;2022-11-23T00:08:11;5.43;;;2.67;;
8066;SDS011;4076;48.076;9.118;2022-11-23T00:10:36;11.30;;;4.67;;
8066;SDS011;4076;48.076;9.118;2022-11-23T00:13:02;9.53;;;5.70;;
8066;SDS011;4076;48.076;9.118;2022-11-23T00:15:28;13.10;;;3.73;;
8066;SDS011;4076;48.076;9.118;2022-11-23T00:17:53;3.90;;;2.20;;
8066;SDS011;4076;48.076;9.118;2022-11-23T00:20:19;4.43;;;2.13;;
8066;SDS011;4076;48.076;9.118;2022-11-23T00:22:44;10.43;;;3.17;;
8066;SDS011;4076;48.076;9.118;2022-11-23T00:25:10;9.10;;;4.30;;
8066;SDS011;4076;48.076;9.118;2022-11-23T00:27:35;11.83;;;4.63;;
8066;SDS011;4076;48.076;9.118;2022-11-23T00:30:01;10.23;;;3.53;;
8066;SDS011;4076;48.076;9.118;2022-11-23T00:32:30;4.83;;;2.87;;
8066;SDS011;4076;48.076;9.118;2022-11-23T00:34:55;2.57;;;1.83;;
8066;SDS011;4076;48.076;9.118;2022-11-23T00:37:21;2.20;;;1.60;;
8066;SDS011;4076;48.076;9.118;2022-11-23T00:39:46;2.40;;;1.73;;
8066;SDS011;4076;48.076;9.118;2022-11-23T00:42:12;2.97;;;1.97;;
8066;SDS011;4076;48.076;9.118;2022-11-23T00:44:37;6.07;;;3.00;;
8066;SDS011;4076;48.076;9.118;2022-11-23T00:47:03;6.40;;;2.73;;
8066;SDS011;4076;48.076;9.118;2022-11-23T00:49:29;5.30;;;2.70;;
8066;SDS011;4076;48.076;9.118;2022-11-23T00:51:55;4.07;;;2.47;;
8066;SDS011;4076;48.076;9.118;2022-11-23T00:54:20;7.17;;;4.73;;
8066;SDS011;4076;48.076;9.118;2022-11-23T00:56:46;6.73;;;3.30;;
8066;SDS011;4076;48.076;9.118;2022-11-23T00:59:11;6.97;;;3.97;;
8066;SDS011;4076;48.076;9.118;2022-11-23T01:01:37;7.00;;;3.23;;
8066;SDS011;4076;48.076;9.118;2022-11-23T01:04:03;5.00;;;3.10;;
8066;SDS011;4076;48.076;9.118;2022-11-23T01:06:34;4.00;;;2.10;;
8066;SDS011;4076;48.076;9.118;2022-11-23T01:09:05;4.50;;;2.70;;
8066;SDS011;4076;48.076;9.118;2022-11-23T01:11:34;5.57;;;2.10;;
8066;SDS011;4076;48.076;9.118;2022-11-23T01:13:59;3.23;;;2.03;;
8066;SDS011;4076;48.076;9.118;2022-11-23T01:16:31;8.00;;;4.63;;
8066;SDS011;4076;48.076;9.118;2022-11-23T01:18:59;5.47;;;2.50;;
8066;SDS011;4076;48.076;9.118;2022-11-23T01:21:28;4.77;;;2.33;;
8066;SDS011;4076;48.076;9.118;2022-11-23T01:23:54;3.30;;;2.23;;
8066;SDS011;4076;48.076;9.118;2022-11-23T01:26:20;3.80;;;2.57;;
8066;SDS011;4076;48.076;9.118;2022-11-23T01:28:46;3.33;;;1.90;;
8066;SDS011;4076;48.076;9.118;2022-11-23T01:31:13;3.60;;;1.80;;
8066;SDS011;4076;48.076;9.118;2022-11-23T01:33:40;2.60;;;1.87;;
8066;SDS011;4076;48.076;9.118;2022-11-23T01:36:13;5.07;;;2.33;;
8066;SDS011;4076;48.076;9.118;2022-11-23T01:38:43;5.77;;;2.67;;
8066;SDS011;4076;48.076;9.118;2022-11-23T01:41:13;3.50;;;2.53;;
8066;SDS011;4076;48.076;9.118;2022-11-23T01:43:40;2.87;;;1.90;;
8066;SDS011;4076;48.076;9.118;2022-11-23T01:46:06;3.47;;;2.23;;
8066;SDS011;4076;48.076;9.118;2022-11-23T01:48:37;3.13;;;2.83;;
8066;SDS011;4076;48.076;9.118;2022-11-23T01:51:15;6.30;;;2.43;;
8066;SDS011;4076;48.076;9.118;2022-11-23T01:53:44;4.90;;;2.77;;
8066;SDS011;4076;48.076;9.118;2022-11-23T01:56:13;6.63;;;3.60;;
8066;SDS011;4076;48.076;9.118;2022-11-23T01:58:43;4.50;;;3.00;;
8066;SDS011;4076;48.076;9.118;2022-11-23T02:01:12;4.20;;;2.53;;
8066;SDS011;4076;48.076;9.118;2022-11-23T02:03:38;4.50;;;3.00;;
8066;SDS011;4076;48.076;9.118;2022-11-23T02:06:07;9.77;;;2.97;;
8066;SDS011;4076;48.076;9.118;2022-11-23T02:08:36;5.13;;;3.17;;
8066;SDS011;4076;48.076;9.118;2022-11-23T02:11:02;2.97;;;1.77;;
8066;SDS011;4076;48.076;9.118;2022-11-23T02:13:28;2.53;;;1.87;;
8066;SDS011;4076;48.076;9.118;2022-11-23T02:15:54;3.17;;;1.97;;
8066;SDS011;4076;48.076;9.118;2022-11-23T02:18:22;2.37;;;1.63;;
8066;SDS011;4076;48.076;9.118;2022-11-23T02:20:50;3.13;;;1.70;;
8066;SDS011;4076;48.076;9.118;2022-11-23T02:26:01;5.47;;;3.00;;
8066;SDS011;4076;48.076;9.118;2022-11-23T02:28:37;6.70;;;2.60;;
8066;SDS011;4076;48.076;9.118;2022-11-23T02:31:07;5.13;;;2.70;;
8066;SDS011;4076;48.076;9.118;2022-11-23T02:33:32;8.40;;;3.90;;
8066;SDS011;4076;48.076;9.118;2022-11-23T02:36:01;7.30;;;4.50;;
8066;SDS011;4076;48.076;9.118;2022-11-23T02:38:28;6.63;;;4.93;;
8066;SDS011;4076;48.076;9.118;2022-11-23T02:40:56;11.07;;;3.93;;
8066;SDS011;4076;48.076;9.118;2022-11-23T02:43:22;5.90;;;3.00;;
8066;SDS011;4076;48.076;9.118;2022-11-23T02:45:49;4.20;;;2.70;;
8066;SDS011;4076;48.076;9.118;2022-11-23T02:48:16;3.27;;;2.53;;
8066;SDS011;4076;48.076;9.118;2022-11-23T02:50:42;8.90;;;4.13;;
8066;SDS011;4076;48.076;9.118;2022-11-23T02:53:09;4.73;;;4.20;;
8066;SDS011;4076;48.076;9.118;2022-11-23T02:55:34;23.80;;;4.50;;
8066;SDS011;4076;48.076;9.118;2022-11-23T02:58:00;9.90;;;2.37;;
8066;SDS011;4076;48.076;9.118;2022-11-23T03:00:26;7.63;;;2.83;;
8066;SDS011;4076;48.076;9.118;2022-11-23T03:02:52;4.00;;;3.53;;
8066;SDS011;4076;48.076;9.118;2022-11-23T03:05:17;5.10;;;2.17;;
8066;SDS011;4076;48.076;9.118;2022-11-23T03:07:43;5.40;;;2.67;;
8066;SDS011;4076;48.076;9.118;2022-11-23T03:10:08;10.53;;;4.83;;
8066;SDS011;4076;48.076;9.118;2022-11-23T03:12:34;4.37;;;2.00;;
8066;SDS011;4076;48.076;9.118;2022-11-23T03:15:00;4.83;;;2.53;;
8066;SDS011;4076;48.076;9.118;2022-11-23T03:17:26;10.40;;;3.43;;
8066;SDS011;4076;48.076;9.118;2022-11-23T03:19:52;2.93;;;2.00;;
8066;SDS011;4076;48.076;9.118;2022-11-23T03:22:18;3.60;;;2.00;;
8066;SDS011;4076;48.076;9.118;2022-11-23T03:24:44;3.97;;;2.00;;
8066;SDS011;4076;48.076;9.118;2022-11-23T03:27:09;2.30;;;1.97;;
8066;SDS011;4076;48.076;9.118;2022-11-23T03:29:35;6.27;;;3.20;;
8066;SDS011;4076;48.076;9.118;2022-11-23T03:32:01;4.30;;;3.27;;
8066;SDS011;4076;48.076;9.118;2022-11-23T03:34:27;17.90;;;4.13;;
8066;SDS011;4076;48.076;9.118;2022-11-23T03:36:52;4.00;;;2.50;;
8066;SDS011;4076;48.076;9.118;2022-11-23T03:39:18;5.37;;;3.40;;
8066;SDS011;4076;48.076;9.118;2022-11-23T03:41:43;21.87;;;2.73;;
8066;SDS011;4076;48.076;9.118;2022-11-23T03:44:09;7.00;;;2.97;;
8066;SDS011;4076;48.076;9.118;2022-11-23T03:46:35;3.10;;;2.40;;
8066;SDS011;4076;48.076;9.118;2022-11-23T03:49:00;5.27;;;2.27;;
8066;SDS011;4076;48.076;9.118;2022-11-23T03:51:26;8.70;;;3.70;;
8066;SDS011;4076;48.076;9.118;2022-11-23T03:53:51;6.60;;;3.20;;
8066;SDS011;4076;48.076;9.118;2022-11-23T03:56:17;4.90;;;2.77;;
8066;SDS011;4076;48.076;9.118;2022-11-23T03:58:43;5.83;;;2.97;;
8066;SDS011;4076;48.076;9.118;2022-11-23T04:01:09;5.70;;;2.87;;
8066;SDS011;4076;48.076;9.118;2022-11-23T04:03:35;12.30;;;5.40;;
8066;SDS011;4076;48.076;9.118;2022-11-23T04:06:00;7.77;;;2.60;;
8066;SDS011;4076;48.076;9.118;2022-11-23T04:08:26;4.27;;;2.30;;
8066;SDS011;4076;48.076;9.118;2022-11-23T04:10:54;3.97;;;2.83;;
8066;SDS011;4076;48.076;9.118;2022-11-23T04:13:21;5.27;;;2.90;;
8066;SDS011;4076;48.076;9.118;2022-11-23T04:15:46;2.83;;;2.13;;
8066;SDS011;4076;48.076;9.118;2022-11-23T04:18:12;5.00;;;2.67;;
8066;SDS011;4076;48.076;9.118;2022-11-23T04:20:37;4.83;;;3.10;;
8066;SDS011;4076;48.076;9.118;2022-11-23T04:23:03;7.30;;;2.27;;
8066;SDS011;4076;48.076;9.118;2022-11-23T04:25:28;4.73;;;2.20;;
8066;SDS011;4076;48.076;9.118;2022-11-23T04:27:54;6.17;;;3.13;;
8066;SDS011;4076;48.076;9.118;2022-11-23T04:30:19;4.03;;;3.63;;
8066;SDS011;4076;48.076;9.118;2022-11-23T04:32:45;5.80;;;5.27;;
8066;SDS011;4076;48.076;9.118;2022-11-23T04:35:11;5.63;;;4.63;;
8066;SDS011;4076;48.076;9.118;2022-11-23T04:37:37;5.10;;;3.80;;
8066;SDS011;4076;48.076;9.118;2022-11-23T04:40:03;5.23;;;4.07;;
8066;SDS011;4076;48.076;9.118;2022-11-23T04:42:29;5.37;;;4.23;;
8066;SDS011;4076;48.076;9.118;2022-11-23T04:44:54;4.53;;;3.23;;
8066;SDS011;4076;48.076;9.118;2022-11-23T04:47:21;4.03;;;3.13;;
8066;SDS011;4076;48.076;9.118;2022-11-23T04:49:48;3.70;;;2.13;;
8066;SDS011;4076;48.076;9.118;2022-11-23T04:52:13;3.90;;;1.70;;
8066;SDS011;4076;48.076;9.118;2022-11-23T04:54:39;3.53;;;2.73;;
8066;SDS011;4076;48.076;9.118;2022-11-23T04:57:04;4.67;;;4.30;;
8066;SDS011;4076;48.076;9.118;2022-11-23T04:59:30;5.60;;;1.70;;
8066;SDS011;4076;48.076;9.118;2022-11-23T05:01:56;4.20;;;2.33;;
8066;SDS011;4076;48.076;9.118;2022-11-23T05:04:21;3.40;;;2.03;;
8066;SDS011;4076;48.076;9.118;2022-11-23T05:06:47;2.70;;;2.20;;
8066;SDS011;4076;48.076;9.118;2022-11-23T05:09:12;2.93;;;2.63;;
8066;SDS011;4076;48.076;9.118;2022-11-23T05:11:38;5.43;;;2.30;;
8066;SDS011;4076;48.076;9.118;2022-11-23T05:14:03;3.20;;;1.70;;
8066;SDS011;4076;48.076;9.118;2022-11-23T05:16:29;3.70;;;1.50;;
8066;SDS011;4076;48.076;9.118;2022-11-23T05:18:54;3.67;;;3.33;;
8066;SDS011;4076;48.076;9.118;2022-11-23T05:21:20;2.30;;;1.40;;
8066;SDS011;4076;48.076;9.118;2022-11-23T05:23:46;2.00;;;1.60;;
8066;SDS011;4076;48.076;9.118;2022-11-23T05:26:11;2.93;;;2.20;;
8066;SDS011;4076;48.076;9.118;2022-11-23T05:28:37;4.80;;;2.23;;
8066;SDS011;4076;48.076;9.118;2022-11-23T05:31:04;5.30;;;2.70;;
8066;SDS011;4076;48.076;9.118;2022-11-23T05:33:29;3.50;;;2.20;;
8066;SDS011;4076;48.076;9.118;2022-11-23T05:35:55;4.40;;;2.97;;
8066;SDS011;4076;48.076;9.118;2022-11-23T05:38:20;2.90;;;2.30;;
8066;SDS011;4076;48.076;9.118;2022-11-23T05:40:46;4.80;;;3.47;;
8066;SDS011;4076;48.076;9.118;2022-11-23T05:43:12;2.83;;;2.13;;
8066;SDS011;4076;48.076;9.118;2022-11-23T05:45:37;3.60;;;2.17;;
8066;SDS011;4076;48.076;9.118;2022-11-23T05:48:03;4.90;;;1.93;;
8066;SDS011;4076;48.076;9.118;2022-11-23T05:50:29;2.47;;;1.60;;
8066;SDS011;4076;48.076;9.118;2022-11-23T05:52:56;2.37;;;1.70;;
8066;SDS011;4076;48.076;9.118;2022-11-23T05:55:22;3.63;;;2.40;;
8066;SDS011;4076;48.076;9.118;2022-11-23T05:57:48;2.33;;;1.70;;
8066;SDS011;4076;48.076;9.118;2022-11-23T06:00:13;5.57;;;3.00;;
8066;SDS011;4076;48.076;9.118;2022-11-23T06:02:39;2.90;;;1.70;;
8066;SDS011;4076;48.076;9.118;2022-11-23T06:05:05;3.00;;;1.87;;
8066;SDS011;4076;48.076;9.118;2022-11-23T06:07:32;2.47;;;1.80;;
8066;SDS011;4076;48.076;9.118;2022-11-23T06:09:58;2.73;;;1.50;;
8066;SDS011;4076;48.076;9.118;2022-11-23T06:12:24;6.07;;;2.70;;
8066;SDS011;4076;48.076;9.118;2022-11-23T06:14:49;3.93;;;2.10;;
8066;SDS011;4076;48.076;9.118;2022-11-23T06:17:15;5.30;;;3.23;;
8066;SDS011;4076;48.076;9.118;2022-11-23T06:19:40;3.70;;;2.10;;
8066;SDS011;4076;48.076;9.118;2022-11-23T06:22:06;5.23;;;3.00;;
8066;SDS011;4076;48.076;9.118;2022-11-23T06:24:32;2.60;;;1.90;;
8066;SDS011;4076;48.076;9.118;2022-11-23T06:26:58;2.57;;;1.90;;
8066;SDS011;4076;48.076;9.118;2022-11-23T06:29:23;4.50;;;2.97;;
8066;SDS011;4076;48.076;9.118;2022-11-23T06:31:49;2.73;;;1.90;;
8066;SDS011;4076;48.076;9.118;2022-11-23T06:34:14;3.47;;;2.63;;
8066;SDS011;4076;48.076;9.118;2022-11-23T06:36:40;4.03;;;2.17;;
8066;SDS011;4076;48.076;9.118;2022-11-23T06:39:07;36.80;;;17.17;;
8066;SDS011;4076;48.076;9.118;2022-11-23T06:41:32;24.53;;;14.73;;
8066;SDS011;4076;48.076;9.118;2022-11-23T06:43:58;5.57;;;4.10;;
8066;SDS011;4076;48.076;9.118;2022-11-23T06:46:24;28.90;;;18.00;;
8066;SDS011;4076;48.076;9.118;2022-11-23T06:48:49;20.73;;;12.77;;
8066;SDS011;4076;48.076;9.118;2022-11-23T06:51:15;13.90;;;7.50;;
8066;SDS011;4076;48.076;9.118;2022-11-23T06:53:41;6.90;;;4.57;;
8066;SDS011;4076;48.076;9.118;2022-11-23T06:56:06;9.03;;;6.50;;
8066;SDS011;4076;48.076;9.118;2022-11-23T06:58:32;10.40;;;5.63;;
8066;SDS011;4076;48.076;9.118;2022-11-23T07:01:03;5.93;;;3.47;;
8066;SDS011;4076;48.076;9.118;2022-11-23T07:03:31;11.70;;;4.77;;
8066;SDS011;4076;48.076;9.118;2022-11-23T07:05:56;5.47;;;3.20;;
8066;SDS011;4076;48.076;9.118;2022-11-23T07:08:22;2.73;;;2.00;;
8066;SDS011;4076;48.076;9.118;2022-11-23T07:10:48;4.83;;;3.07;;
8066;SDS011;4076;48.076;9.118;2022-11-23T07:13:14;3.20;;;2.60;;
8066;SDS011;4076;48.076;9.118;2022-11-23T07:15:40;3.87;;;3.07;;
8066;SDS011;4076;48.076;9.118;2022-11-23T07:18:06;11.63;;;6.07;;
8066;SDS011;4076;48.076;9.118;2022-11-23T07:20:33;10.10;;;4.30;;
8066;SDS011;4076;48.076;9.118;2022-11-23T07:25:32;9.43;;;5.27;;
8066;SDS011;4076;48.076;9.118;2022-11-23T07:28:00;13.13;;;8.80;;
8066;SDS011;4076;48.076;9.118;2022-11-23T07:30:27;5.40;;;4.20;;
8066;SDS011;4076;48.076;9.118;2022-11-23T07:32:57;4.10;;;3.50;;
8066;SDS011;4076;48.076;9.118;2022-11-23T07:35:27;5.37;;;3.60;;
8066;SDS011;4076;48.076;9.118;2022-11-23T07:37:53;5.53;;;3.40;;
8066;SDS011;4076;48.076;9.118;2022-11-23T07:40:19;4.60;;;3.40;;
8066;SDS011;4076;48.076;9.118;2022-11-23T07:42:44;4.87;;;3.87;;
8066;SDS011;4076;48.076;9.118;2022-11-23T07:45:10;8.20;;;3.07;;
8066;SDS011;4076;48.076;9.118;2022-11-23T07:47:36;4.73;;;2.30;;
8066;SDS011;4076;48.076;9.118;2022-11-23T07:50:03;4.03;;;2.17;;
8066;SDS011;4076;48.076;9.118;2022-11-23T07:52:34;2.57;;;1.90;;
8066;SDS011;4076;48.076;9.118;2022-11-23T07:55:01;4.70;;;2.43;;
8066;SDS011;4076;48.076;9.118;2022-11-23T07:57:27;7.00;;;2.90;;
8066;SDS011;4076;48.076;9.118;2022-11-23T07:59:53;4.70;;;2.90;;
8066;SDS011;4076;48.076;9.118;2022-11-23T08:02:18;8.00;;;3.47;;
8066;SDS011;4076;48.076;9.118;2022-11-23T08:04:45;4.70;;;2.00;;
8066;SDS011;4076;48.076;9.118;2022-11-23T08:07:10;5.87;;;4.07;;
8066;SDS011;4076;48.076;9.118;2022-11-23T08:09:36;5.40;;;2.30;;
8066;SDS011;4076;48.076;9.118;2022-11-23T08:12:01;2.10;;;1.47;;
8066;SDS011;4076;48.076;9.118;2022-11-23T08:14:27;2.70;;;1.90;;
8066;SDS011;4076;48.076;9.118;2022-11-23T08:16:53;8.27;;;2.93;;
8066;SDS011;4076;48.076;9.118;2022-11-23T08:19:18;6.27;;;3.77;;
8066;SDS011;4076;48.076;9.118;2022-11-23T08:21:44;5.97;;;3.33;;
8066;SDS011;4076;48.076;9.118;2022-11-23T08:24:10;3.30;;;2.83;;
8066;SDS011;4076;48.076;9.118;2022-11-23T08:26:36;3.27;;;2.40;;
8066;SDS011;4076;48.076;9.118;2022-11-23T08:29:02;5.20;;;3.30;;
8066;SDS011;4076;48.076;9.118;2022-11-23T08:31:28;5.40;;;2.80;;
8066;SDS011;4076;48.076;9.118;2022-11-23T08:33:54;4.63;;;3.70;;
8066;SDS011;4076;48.076;9.118;2022-11-23T08:36:19;10.10;;;6.80;;
8066;SDS011;4076;48.076;9.118;2022-11-23T08:38:45;20.27;;;15.20;;
8066;SDS011;4076;48.076;9.118;2022-11-23T08:41:11;13.00;;;8.70;;
8066;SDS011;4076;48.076;9.118;2022-11-23T08:43:36;11.73;;;6.60;;
8066;SDS011;4076;48.076;9.118;2022-11-23T08:46:02;10.53;;;6.47;;
8066;SDS011;4076;48.076;9.118;2022-11-23T08:48:28;13.90;;;10.83;;
8066;SDS011;4076;48.076;9.118;2022-11-23T08:50:56;13.67;;;11.67;;
8066;SDS011;4076;48.076;9.118;2022-11-23T08:53:23;19.47;;;14.13;;
8066;SDS011;4076;48.076;9.118;2022-11-23T08:55:49;34.43;;;25.00;;
8066;SDS011;4076;48.076;9.118;2022-11-23T08:58:15;21.97;;;15.47;;
8066;SDS011;4076;48.076;9.118;2022-11-23T09:00:40;11.90;;;9.40;;
8066;SDS011;4076;48.076;9.118;2022-11-23T09:03:06;10.80;;;8.00;;
8066;SDS011;4076;48.076;9.118;2022-11-23T09:05:31;10.13;;;6.17;;
8066;SDS011;4076;48.076;9.118;2022-11-23T09:08:00;11.50;;;9.60;;
8066;SDS011;4076;48.076;9.118;2022-11-23T09:10:26;7.30;;;5.80;;
8066;SDS011;4076;48.076;9.118;2022-11-23T09:12:51;8.27;;;6.70;;
8066;SDS011;4076;48.076;9.118;2022-11-23T09:15:17;7.00;;;5.83;;
8066;SDS011;4076;48.076;9.118;2022-11-23T09:17:43;9.20;;;5.00;;
8066;SDS011;4076;48.076;9.118;2022-11-23T09:20:09;7.90;;;4.70;;
8066;SDS011;4076;48.076;9.118;2022-11-23T09:22:35;11.33;;;9.33;;
8066;SDS011;4076;48.076;9.118;2022-11-23T09:25:01;8.93;;;7.87;;
8066;SDS011;4076;48.076;9.118;2022-11-23T09:27:27;12.57;;;9.73;;
8066;SDS011;4076;48.076;9.118;2022-11-23T09:29:52;12.43;;;10.10;;
8066;SDS011;4076;48.076;9.118;2022-11-23T09:32:18;11.47;;;9.10;;
8066;SDS011;4076;48.076;9.118;2022-11-23T09:34:43;9.63;;;8.43;;
8066;SDS011;4076;48.076;9.118;2022-11-23T09:37:09;6.13;;;4.50;;
8066;SDS011;4076;48.076;9.118;2022-11-23T09:39:35;7.40;;;5.03;;
8066;SDS011;4076;48.076;9.118;2022-11-23T09:50:49;5.90;;;4.87;;
8066;SDS011;4076;48.076;9.118;2022-11-23T09:56:03;5.33;;;4.77;;
8066;SDS011;4076;48.076;9.118;2022-11-23T09:58:31;10.23;;;7.10;;
8066;SDS011;4076;48.076;9.118;2022-11-23T10:01:04;5.13;;;4.60;;
8066;SDS011;4076;48.076;9.118;2022-11-23T10:03:33;9.30;;;6.97;;
8066;SDS011;4076;48.076;9.118;2022-11-23T10:08:35;6.70;;;4.20;;
8066;SDS011;4076;48.076;9.118;2022-11-23T10:11:34;6.47;;;5.03;;
8066;SDS011;4076;48.076;9.118;2022-11-23T10:14:18;22.63;;;16.70;;
8066;SDS011;4076;48.076;9.118;2022-11-23T10:16:53;16.70;;;13.00;;
8066;SDS011;4076;48.076;9.118;2022-11-23T10:19:29;11.00;;;8.33;;
8066;SDS011;4076;48.076;9.118;2022-11-23T10:22:15;8.93;;;7.40;;
8066;SDS011;4076;48.076;9.118;2022-11-23T10:24:45;5.97;;;5.37;;
8066;SDS011;4076;48.076;9.118;2022-11-23T10:27:15;6.73;;;5.33;;
8066;SDS011;4076;48.076;9.118;2022-11-23T10:29:42;6.60;;;5.90;;
8066;SDS011;4076;48.076;9.118;2022-11-23T10:32:51;8.27;;;6.10;;
8066;SDS011;4076;48.076;9.118;2022-11-23T10:35:08;7.40;;;4.90;;
8066;SDS011;4076;48.076;9.118;2022-11-23T10:37:37;5.80;;;5.13;;
8066;SDS011;4076;48.076;9.118;2022-11-23T10:40:17;6.33;;;4.20;;
8066;SDS011;4076;48.076;9.118;2022-11-23T10:42:48;5.50;;;4.00;;
8066;SDS011;4076;48.076;9.118;2022-11-23T10:45:19;4.13;;;3.60;;
8066;SDS011;4076;48.076;9.118;2022-11-23T10:47:51;4.87;;;3.70;;
8066;SDS011;4076;48.076;9.118;2022-11-23T10:55:31;3.97;;;3.40;;
8066;SDS011;4076;48.076;9.118;2022-11-23T10:58:12;3.97;;;3.40;;
8066;SDS011;4076;48.076;9.118;2022-11-23T11:00:58;3.47;;;2.83;;
8066;SDS011;4076;48.076;9.118;2022-11-23T11:03:25;3.70;;;3.10;;
8066;SDS011;4076;48.076;9.118;2022-11-23T11:05:54;6.77;;;5.33;;
8066;SDS011;4076;48.076;9.118;2022-11-23T11:08:22;5.47;;;4.10;;
8066;SDS011;4076;48.076;9.118;2022-11-23T11:13:45;4.40;;;3.00;;
8066;SDS011;4076;48.076;9.118;2022-11-23T11:18:43;3.30;;;2.17;;
8066;SDS011;4076;48.076;9.118;2022-11-23T11:21:19;3.50;;;2.40;;
8066;SDS011;4076;48.076;9.118;2022-11-23T11:23:53;5.13;;;3.43;;
8066;SDS011;4076;48.076;9.118;2022-11-23T11:26:30;4.07;;;2.67;;
8066;SDS011;4076;48.076;9.118;2022-11-23T11:29:03;2.70;;;2.23;;
8066;SDS011;4076;48.076;9.118;2022-11-23T11:31:38;3.17;;;2.87;;
8066;SDS011;4076;48.076;9.118;2022-11-23T11:34:18;3.33;;;2.17;;
8066;SDS011;4076;48.076;9.118;2022-11-23T11:37:08;2.67;;;2.13;;
8066;SDS011;4076;48.076;9.118;2022-11-23T11:39:49;2.77;;;1.80;;
8066;SDS011;4076;48.076;9.118;2022-11-23T11:42:22;3.57;;;2.13;;
8066;SDS011;4076;48.076;9.118;2022-11-23T11:44:56;3.60;;;2.40;;
8066;SDS011;4076;48.076;9.118;2022-11-23T11:50:28;3.43;;;2.30;;
8066;SDS011;4076;48.076;9.118;2022-11-23T11:53:04;3.13;;;2.30;;
8066;SDS011;4076;48.076;9.118;2022-11-23T11:55:45;2.43;;;1.70;;
8066;SDS011;4076;48.076;9.118;2022-11-23T11:58:25;5.37;;;3.20;;
8066;SDS011;4076;48.076;9.118;2022-11-23T12:01:08;3.23;;;2.57;;
8066;SDS011;4076;48.076;9.118;2022-11-23T12:03:55;2.97;;;2.43;;
8066;SDS011;4076;48.076;9.118;2022-11-23T12:06:27;3.83;;;3.17;;
8066;SDS011;4076;48.076;9.118;2022-11-23T12:09:05;2.90;;;2.50;;
8066;SDS011;4076;48.076;9.118;2022-11-23T12:11:59;3.37;;;2.70;;
8066;SDS011;4076;48.076;9.118;2022-11-23T12:14:38;2.73;;;2.37;;
8066;SDS011;4076;48.076;9.118;2022-11-23T12:17:05;8.40;;;4.03;;
8066;SDS011;4076;48.076;9.118;2022-11-23T12:19:48;3.50;;;2.50;;
8066;SDS011;4076;48.076;9.118;2022-11-23T12:25:32;3.50;;;2.50;;
8066;SDS011;4076;48.076;9.118;2022-11-23T12:28:06;3.30;;;1.70;;
8066;SDS011;4076;48.076;9.118;2022-11-23T12:30:54;4.30;;;2.70;;
8066;SDS011;4076;48.076;9.118;2022-11-23T12:50:23;1.90;;;1.30;;
8066;SDS011;4076;48.076;9.118;2022-11-23T12:53:01;1.90;;;1.13;;
8066;SDS011;4076;48.076;9.118;2022-11-23T12:55:56;3.20;;;1.67;;
8066;SDS011;4076;48.076;9.118;2022-11-23T12:58:46;2.33;;;1.40;;
8066;SDS011;4076;48.076;9.118;2022-11-23T13:01:15;3.93;;;1.57;;
8066;SDS011;4076;48.076;9.118;2022-11-23T13:18:13;2.33;;;1.40;;
8066;SDS011;4076;48.076;9.118;2022-11-23T13:23:22;2.50;;;1.80;;
8066;SDS011;4076;48.076;9.118;2022-11-23T13:28:37;4.00;;;1.77;;
8066;SDS011;4076;48.076;9.118;2022-11-23T13:33:43;4.00;;;1.30;;
8066;SDS011;4076;48.076;9.118;2022-11-23T13:38:55;4.27;;;2.33;;
8066;SDS011;4076;48.076;9.118;2022-11-23T13:46:42;2.87;;;1.60;;
8066;SDS011;4076;48.076;9.118;2022-11-23T13:49:30;3.03;;;1.93;;
8066;SDS011;4076;48.076;9.118;2022-11-23T13:57:41;5.37;;;1.50;;
8066;SDS011;4076;48.076;9.118;2022-11-23T14:08:52;2.93;;;1.70;;
8066;SDS011;4076;48.076;9.118;2022-11-23T14:15:18;4.07;;;2.10;;
8066;SDS011;4076;48.076;9.118;2022-11-23T14:17:25;2.40;;;1.60;;
8066;SDS011;4076;48.076;9.118;2022-11-23T14:32:07;4.43;;;1.90;;
8066;SDS011;4076;48.076;9.118;2022-11-23T14:40:56;4.20;;;1.40;;
8066;SDS011;4076;48.076;9.118;2022-11-23T14:43:39;2.50;;;1.03;;
8066;SDS011;4076;48.076;9.118;2022-11-23T14:46:12;3.30;;;2.20;;
8066;SDS011;4076;48.076;9.118;2022-11-23T14:48:43;19.07;;;7.60;;
8066;SDS011;4076;48.076;9.118;2022-11-23T14:51:11;8.70;;;5.10;;
8066;SDS011;4076;48.076;9.118;2022-11-23T14:53:40;5.13;;;3.60;;
8066;SDS011;4076;48.076;9.118;2022-11-23T14:56:19;4.50;;;2.70;;
8066;SDS011;4076;48.076;9.118;2022-11-23T14:58:51;3.97;;;2.23;;
8066;SDS011;4076;48.076;9.118;2022-11-23T15:01:18;2.87;;;1.57;;
8066;SDS011;4076;48.076;9.118;2022-11-23T15:04:06;4.80;;;2.57;;
8066;SDS011;4076;48.076;9.118;2022-11-23T15:06:34;2.00;;;1.07;;
8066;SDS011;4076;48.076;9.118;2022-11-23T15:09:22;4.77;;;1.60;;
8066;SDS011;4076;48.076;9.118;2022-11-23T15:11:50;6.30;;;2.30;;
8066;SDS011;4076;48.076;9.118;2022-11-23T15:14:28;2.30;;;1.90;;
8066;SDS011;4076;48.076;9.118;2022-11-23T15:16:54;2.80;;;2.10;;
8066;SDS011;4076;48.076;9.118;2022-11-23T15:21:52;2.10;;;1.50;;
8066;SDS011;4076;48.076;9.118;2022-11-23T15:24:22;3.67;;;2.33;;
8066;SDS011;4076;48.076;9.118;2022-11-23T15:26:52;2.77;;;1.80;;
8066;SDS011;4076;48.076;9.118;2022-11-23T15:29:36;1.60;;;1.10;;
8066;SDS011;4076;48.076;9.118;2022-11-23T15:32:03;1.80;;;1.07;;
8066;SDS011;4076;48.076;9.118;2022-11-23T15:34:49;3.20;;;1.17;;
8066;SDS011;4076;48.076;9.118;2022-11-23T15:37:17;2.23;;;1.20;;
8066;SDS011;4076;48.076;9.118;2022-11-23T15:39:42;2.53;;;1.37;;
8066;SDS011;4076;48.076;9.118;2022-11-23T15:42:10;4.33;;;2.13;;
8066;SDS011;4076;48.076;9.118;2022-11-23T15:44:41;2.37;;;1.60;;
8066;SDS011;4076;48.076;9.118;2022-11-23T15:47:10;3.77;;;1.80;;
8066;SDS011;4076;48.076;9.118;2022-11-23T15:50:07;4.33;;;2.70;;
8066;SDS011;4076;48.076;9.118;2022-11-23T15:52:34;3.23;;;1.87;;
8066;SDS011;4076;48.076;9.118;2022-11-23T15:55:05;3.63;;;2.70;;
8066;SDS011;4076;48.076;9.118;2022-11-23T15:57:32;4.10;;;2.90;;
8066;SDS011;4076;48.076;9.118;2022-11-23T15:59:59;3.20;;;2.53;;
8066;SDS011;4076;48.076;9.118;2022-11-23T16:02:28;4.73;;;4.00;;
8066;SDS011;4076;48.076;9.118;2022-11-23T16:05:03;39.77;;;25.87;;
8066;SDS011;4076;48.076;9.118;2022-11-23T16:07:29;29.90;;;18.47;;
8066;SDS011;4076;48.076;9.118;2022-11-23T16:12:30;2.70;;;2.20;;
8066;SDS011;4076;48.076;9.118;2022-11-23T16:15:43;4.43;;;2.63;;
8066;SDS011;4076;48.076;9.118;2022-11-23T16:17:54;2.23;;;1.40;;
8066;SDS011;4076;48.076;9.118;2022-11-23T16:20:21;2.97;;;1.40;;
8066;SDS011;4076;48.076;9.118;2022-11-23T16:22:48;2.77;;;1.80;;
8066;SDS011;4076;48.076;9.118;2022-11-23T16:25:26;4.23;;;1.53;;
8066;SDS011;4076;48.076;9.118;2022-11-23T16:28:00;2.00;;;1.30;;
8066;SDS011;4076;48.076;9.118;2022-11-23T16:30:38;3.50;;;1.70;;
8066;SDS011;4076;48.076;9.118;2022-11-23T16:33:09;2.23;;;1.53;;
8066;SDS011;4076;48.076;9.118;2022-11-23T16:35:38;4.27;;;2.10;;
8066;SDS011;4076;48.076;9.118;2022-11-23T16:38:04;7.03;;;4.30;;
8066;SDS011;4076;48.076;9.118;2022-11-23T16:40:30;5.57;;;3.67;;
8066;SDS011;4076;48.076;9.118;2022-11-23T16:42:56;11.83;;;6.17;;
8066;SDS011;4076;48.076;9.118;2022-11-23T16:45:21;4.90;;;3.13;;
8066;SDS011;4076;48.076;9.118;2022-11-23T16:47:51;3.70;;;2.13;;
8066;SDS011;4076;48.076;9.118;2022-11-23T16:50:18;3.30;;;2.10;;
8066;SDS011;4076;48.076;9.118;2022-11-23T16:52:44;3.50;;;2.17;;
8066;SDS011;4076;48.076;9.118;2022-11-23T16:55:10;6.30;;;5.37;;
8066;SDS011;4076;48.076;9.118;2022-11-23T16:57:36;9.37;;;7.00;;
8066;SDS011;4076;48.076;9.118;2022-11-23T17:00:04;9.00;;;5.77;;
8066;SDS011;4076;48.076;9.118;2022-11-23T17:02:31;5.00;;;4.50;;
8066;SDS011;4076;48.076;9.118;2022-11-23T17:04:57;3.80;;;2.93;;
8066;SDS011;4076;48.076;9.118;2022-11-23T17:07:23;3.87;;;2.57;;
8066;SDS011;4076;48.076;9.118;2022-11-23T17:09:48;3.37;;;1.87;;
8066;SDS011;4076;48.076;9.118;2022-11-23T17:12:15;6.40;;;2.13;;
8066;SDS011;4076;48.076;9.118;2022-11-23T17:14:43;4.90;;;2.47;;
8066;SDS011;4076;48.076;9.118;2022-11-23T17:17:19;4.47;;;2.73;;
8066;SDS011;4076;48.076;9.118;2022-11-23T17:19:46;4.77;;;2.47;;
8066;SDS011;4076;48.076;9.118;2022-11-23T17:22:14;6.93;;;3.80;;
8066;SDS011;4076;48.076;9.118;2022-11-23T17:24:41;6.77;;;3.17;;
8066;SDS011;4076;48.076;9.118;2022-11-23T17:27:09;4.80;;;3.80;;